createdAt,value
2022-07-29T00:01:19.931Z,21.40
2022-07-29T00:03:48.208Z,21.40
2022-07-29T00:06:16.981Z,21.50
2022-07-29T00:08:45.064Z,21.30
2022-07-29T00:11:14.559Z,21.40
2022-07-29T00:13:45.326Z,21.60
2022-07-29T00:16:16.030Z,21.50
2022-07-29T00:18:44.121Z,21.50
2022-07-29T00:21:12.190Z,21.60
2022-07-29T00:23:40.201Z,21.90
2022-07-29T00:26:08.424Z,22.00
2022-07-29T00:28:38.004Z,21.80
2022-07-29T00:31:06.284Z,21.90
2022-07-29T00:33:34.394Z,21.80
2022-07-29T00:36:01.521Z,22.00
2022-07-29T00:38:29.630Z,22.00
2022-07-29T00:40:57.700Z,22.20
2022-07-29T00:43:25.945Z,22.10
2022-07-29T00:45:55.427Z,22.00
2022-07-29T00:48:23.497Z,22.10
2022-07-29T00:50:52.005Z,22.10
2022-07-29T00:53:21.430Z,22.10
2022-07-29T00:55:50.194Z,22.30
2022-07-29T00:58:20.599Z,22.50
2022-07-29T01:00:48.729Z,22.40
2022-07-29T01:03:18.309Z,22.40
2022-07-29T01:05:51.330Z,22.50
2022-07-29T01:08:20.920Z,22.60
2022-07-29T01:10:49.884Z,22.50
2022-07-29T01:13:18.773Z,22.60
2022-07-29T01:15:53.231Z,22.50
2022-07-29T01:18:30.116Z,22.80
2022-07-29T01:21:42.843Z,22.70
2022-07-29T01:24:32.328Z,22.80
2022-07-29T01:27:06.748Z,22.80
2022-07-29T01:29:42.382Z,22.90
2022-07-29T01:32:22.565Z,22.90
2022-07-29T01:35:02.382Z,23.00
2022-07-29T01:37:36.690Z,23.10
2022-07-29T01:40:07.094Z,22.90
2022-07-29T01:42:41.355Z,23.00
2022-07-29T01:45:15.828Z,23.00
2022-07-29T01:47:49.028Z,23.10
2022-07-29T01:50:19.586Z,23.00
2022-07-29T01:52:55.998Z,23.20
2022-07-29T01:55:30.072Z,23.80
2022-07-29T01:58:00.987Z,23.20
2022-07-29T02:00:32.608Z,23.30
2022-07-29T02:03:03.474Z,23.20
2022-07-29T02:05:34.987Z,23.30
2022-07-29T02:08:04.694Z,23.10
2022-07-29T02:10:35.500Z,23.30
2022-07-29T02:13:05.067Z,23.40
2022-07-29T02:15:36.342Z,23.20
2022-07-29T02:18:08.550Z,23.40
2022-07-29T02:20:38.286Z,23.40
2022-07-29T02:23:08.156Z,23.40
2022-07-29T02:25:38.305Z,23.50
2022-07-29T02:28:08.496Z,23.70
2022-07-29T02:30:42.215Z,23.70
2022-07-29T02:33:12.188Z,23.90
2022-07-29T02:35:42.865Z,23.90
2022-07-29T02:38:32.522Z,23.90
2022-07-29T02:41:03.507Z,23.90
2022-07-29T02:43:33.741Z,23.70
2022-07-29T02:46:12.801Z,23.90
2022-07-29T02:49:01.930Z,23.90
2022-07-29T02:51:43.737Z,24.10
2022-07-29T02:54:23.677Z,24.10
2022-07-29T02:56:54.567Z,24.00
2022-07-29T02:59:27.950Z,24.30
2022-07-29T03:02:01.102Z,24.10
2022-07-29T03:04:30.780Z,24.40
2022-07-29T03:07:01.659Z,24.50
2022-07-29T03:09:30.598Z,24.40
2022-07-29T03:11:59.729Z,24.40
2022-07-29T03:14:28.317Z,24.40
2022-07-29T03:16:58.244Z,24.40
2022-07-29T03:19:26.580Z,24.50
2022-07-29T03:21:55.111Z,24.40
2022-07-29T03:24:33.257Z,24.60
2022-07-29T03:27:01.348Z,24.50
2022-07-29T03:29:33.865Z,25.30
2022-07-29T03:32:07.216Z,24.90
2022-07-29T03:34:36.509Z,24.60
2022-07-29T03:37:04.677Z,24.80
2022-07-29T03:39:38.212Z,24.90
2022-07-29T03:42:09.638Z,25.00
2022-07-29T03:44:39.337Z,25.20
2022-07-29T03:47:11.717Z,24.90
2022-07-29T03:49:41.185Z,25.10
2022-07-29T03:52:10.087Z,25.20
2022-07-29T03:54:38.326Z,25.20
2022-07-29T03:57:08.197Z,25.00
2022-07-29T03:59:36.814Z,25.10
2022-07-29T04:02:06.781Z,25.20
2022-07-29T04:04:37.610Z,25.10
2022-07-29T04:07:06.523Z,25.30
2022-07-29T04:09:34.617Z,25.10
2022-07-29T04:12:04.277Z,25.00
2022-07-29T04:14:33.224Z,25.20
2022-07-29T04:17:02.094Z,25.40
2022-07-29T04:19:30.525Z,25.10
2022-07-29T04:22:00.657Z,25.20
2022-07-29T04:24:29.173Z,25.20
2022-07-29T04:26:57.307Z,25.20
2022-07-29T04:29:25.326Z,25.30
2022-07-29T04:31:53.546Z,25.10
2022-07-29T04:34:21.745Z,25.20
2022-07-29T04:36:49.855Z,25.20
2022-07-29T04:39:22.912Z,25.30
2022-07-29T04:41:52.538Z,25.30
2022-07-29T04:44:28.379Z,25.30
2022-07-29T04:46:58.551Z,25.00
2022-07-29T04:49:26.872Z,25.20
2022-07-29T04:51:55.285Z,25.20
2022-07-29T04:54:24.795Z,25.30
2022-07-29T04:56:54.506Z,25.20
2022-07-29T04:59:22.557Z,25.30
2022-07-29T05:01:50.727Z,25.30
2022-07-29T05:04:19.411Z,25.20
2022-07-29T05:06:47.904Z,25.30
2022-07-29T05:09:16.011Z,25.20
2022-07-29T05:11:45.374Z,25.40
2022-07-29T05:14:13.860Z,25.20
2022-07-29T05:16:42.834Z,25.40
2022-07-29T05:19:14.354Z,25.10
2022-07-29T05:21:43.365Z,25.20
2022-07-29T05:24:11.468Z,25.30
2022-07-29T05:26:39.701Z,25.40
2022-07-29T05:29:44.518Z,25.30
2022-07-29T05:31:57.086Z,25.20
2022-07-29T05:34:25.913Z,25.20
2022-07-29T05:36:54.253Z,25.30
2022-07-29T05:39:22.550Z,25.30
2022-07-29T05:42:11.409Z,25.20
2022-07-29T05:44:41.542Z,25.40
2022-07-29T05:47:09.631Z,25.20
2022-07-29T05:49:37.779Z,25.40
2022-07-29T05:52:06.574Z,25.20
2022-07-29T05:54:34.629Z,25.20
2022-07-29T05:57:02.708Z,25.20
2022-07-29T05:59:30.857Z,25.40
2022-07-29T06:02:00.343Z,25.20
2022-07-29T06:04:28.594Z,25.40
2022-07-29T06:06:56.657Z,25.30
2022-07-29T06:09:24.794Z,25.20
2022-07-29T06:11:53.247Z,24.70
2022-07-29T06:14:21.675Z,24.30
2022-07-29T06:16:49.783Z,24.00
2022-07-29T06:19:19.360Z,22.50
2022-07-29T06:21:48.865Z,22.20
2022-07-29T06:24:18.399Z,23.00
2022-07-29T06:26:46.989Z,23.00
2022-07-29T06:29:15.044Z,23.20
2022-07-29T06:31:43.189Z,23.30
2022-07-29T06:34:11.322Z,23.10
2022-07-29T06:36:41.781Z,22.90
2022-07-29T06:39:12.198Z,22.50
2022-07-29T06:41:40.474Z,22.80
2022-07-29T06:44:08.554Z,22.50
2022-07-29T06:46:37.395Z,22.40
2022-07-29T06:49:05.747Z,22.20
2022-07-29T06:51:33.936Z,22.50
2022-07-29T06:54:05.784Z,21.50
2022-07-29T06:56:39.338Z,21.60
2022-07-29T06:59:09.710Z,22.10
2022-07-29T07:01:39.074Z,22.10
2022-07-29T07:04:07.654Z,21.60
2022-07-29T07:06:35.741Z,21.20
2022-07-29T07:09:05.883Z,21.40
2022-07-29T07:11:33.937Z,21.50
2022-07-29T07:14:03.749Z,21.70
2022-07-29T07:16:33.059Z,21.80
2022-07-29T07:19:01.615Z,22.00
2022-07-29T07:21:30.657Z,22.20
2022-07-29T07:23:59.607Z,22.00
2022-07-29T07:26:29.825Z,21.90
2022-07-29T07:28:57.951Z,22.00
2022-07-29T07:31:26.134Z,22.70
2022-07-29T07:33:54.725Z,23.00
2022-07-29T07:36:23.343Z,23.00
2022-07-29T07:38:51.840Z,24.80
2022-07-29T07:41:19.950Z,25.00
2022-07-29T07:47:49.413Z,24.00
2022-07-29T07:50:19.376Z,24.10
2022-07-29T07:52:53.497Z,24.00
2022-07-29T07:55:21.985Z,24.10
2022-07-29T07:57:50.161Z,24.00
2022-07-29T08:00:19.357Z,24.20
2022-07-29T08:02:52.410Z,23.90
2022-07-29T08:05:20.774Z,24.10
2022-07-29T08:07:49.446Z,24.90
2022-07-29T08:10:39.749Z,25.40
2022-07-29T08:13:09.916Z,26.50
2022-07-29T08:15:38.083Z,26.90
2022-07-29T08:18:08.869Z,27.80
2022-07-29T08:20:39.189Z,28.20
2022-07-29T08:23:09.486Z,28.30
2022-07-29T08:25:40.176Z,28.50
2022-07-29T08:28:08.609Z,28.20
2022-07-29T08:30:37.208Z,27.80
2022-07-29T08:33:06.861Z,27.30
2022-07-29T08:35:35.483Z,27.30
2022-07-29T08:38:05.272Z,27.60
2022-07-29T08:40:33.745Z,28.40
2022-07-29T08:43:07.941Z,28.80
2022-07-29T08:45:47.967Z,29.30
2022-07-29T08:48:21.213Z,28.90
2022-07-29T08:50:50.951Z,29.60
2022-07-29T08:53:19.815Z,29.60
2022-07-29T08:55:51.384Z,28.50
2022-07-29T08:58:24.537Z,28.40
2022-07-29T09:00:56.197Z,28.20
2022-07-29T09:03:32.396Z,28.00
2022-07-29T09:06:01.329Z,27.70
2022-07-29T09:08:30.124Z,27.80
2022-07-29T09:10:59.391Z,27.50
2022-07-29T09:13:28.824Z,27.60
2022-07-29T09:15:57.315Z,27.20
2022-07-29T09:18:39.452Z,27.20
2022-07-29T09:21:27.390Z,27.60
2022-07-29T09:24:10.413Z,27.50
2022-07-29T09:26:41.964Z,27.70
2022-07-29T09:29:12.575Z,28.00
2022-07-29T09:31:43.466Z,27.70
2022-07-29T09:34:16.426Z,27.70
2022-07-29T09:36:47.076Z,27.70
2022-07-29T09:39:17.838Z,27.50
2022-07-29T09:41:48.894Z,27.20
2022-07-29T09:44:18.031Z,27.60
2022-07-29T09:47:06.799Z,27.70
2022-07-29T09:49:38.961Z,27.80
2022-07-29T09:52:10.633Z,27.40
2022-07-29T09:54:39.623Z,27.40
2022-07-29T09:57:13.568Z,27.30
2022-07-29T09:59:57.986Z,26.60
2022-07-29T10:02:32.492Z,26.30
2022-07-29T10:05:04.451Z,26.40
2022-07-29T10:07:49.379Z,25.90
2022-07-29T10:10:24.014Z,25.80
2022-07-29T10:12:55.802Z,25.60
2022-07-29T10:15:25.886Z,25.30
2022-07-29T10:17:55.897Z,25.10
2022-07-29T10:20:26.201Z,25.30
2022-07-29T10:22:56.628Z,25.30
2022-07-29T10:25:26.769Z,25.00
2022-07-29T10:27:55.983Z,25.00
2022-07-29T10:30:27.038Z,25.00
2022-07-29T10:33:24.715Z,25.00
2022-07-29T10:36:24.363Z,25.10
2022-07-29T10:39:03.613Z,25.40
2022-07-29T10:42:09.226Z,25.10
2022-07-29T10:44:41.981Z,25.40
2022-07-29T10:47:10.375Z,24.80
2022-07-29T10:49:41.088Z,24.50
2022-07-29T10:52:11.538Z,23.90
2022-07-29T10:54:47.306Z,24.00
2022-07-29T10:57:20.811Z,24.30
2022-07-29T10:59:53.127Z,23.70
2022-07-29T11:03:13.004Z,23.70
2022-07-29T11:05:59.579Z,23.50
2022-07-29T11:08:31.752Z,23.10
2022-07-29T11:11:34.877Z,22.50
2022-07-29T11:14:03.257Z,22.20
2022-07-29T11:17:03.306Z,22.00
2022-07-29T11:19:37.278Z,21.40
2022-07-29T11:22:11.641Z,21.30
2022-07-29T11:24:50.208Z,21.20
2022-07-29T11:27:23.096Z,20.80
2022-07-29T11:32:48.646Z,20.60
2022-07-29T11:35:37.144Z,20.40
2022-07-29T11:38:32.156Z,20.10
2022-07-29T11:41:30.404Z,19.80
2022-07-29T11:44:02.173Z,19.30
2022-07-29T11:46:51.256Z,19.20
2022-07-29T11:49:31.781Z,19.00
2022-07-29T11:52:03.689Z,19.30
2022-07-29T11:54:58.342Z,19.20
2022-07-29T11:57:29.501Z,19.20
2022-07-29T12:00:12.009Z,18.90
2022-07-29T12:02:43.130Z,19.10
2022-07-29T12:05:12.853Z,19.00
2022-07-29T12:07:01.387Z,20.80
2022-07-29T12:07:45.492Z,18.40
2022-07-29T12:10:19.421Z,18.00
2022-07-29T12:12:54.838Z,18.40
2022-07-29T12:15:31.485Z,18.10
2022-07-29T12:18:18.270Z,18.50
2022-07-29T12:20:48.107Z,18.60
2022-07-29T12:23:17.513Z,18.40
2022-07-29T12:25:49.739Z,18.40
2022-07-29T12:28:27.578Z,18.50
2022-07-29T12:30:56.378Z,17.80
2022-07-29T12:33:27.464Z,18.00
2022-07-29T12:36:06.235Z,18.20
2022-07-29T12:38:36.877Z,17.90
2022-07-29T12:41:05.685Z,17.80
2022-07-29T12:43:35.358Z,17.50
2022-07-29T12:46:16.137Z,17.00
2022-07-29T12:48:45.359Z,16.30
2022-07-29T12:51:15.716Z,16.30
2022-07-29T12:53:44.301Z,16.00
2022-07-29T12:56:41.721Z,16.20
2022-07-29T12:59:17.336Z,16.30
2022-07-29T13:01:47.855Z,16.00
2022-07-29T13:04:27.724Z,16.40
2022-07-29T13:07:02.326Z,16.00
2022-07-29T13:09:41.054Z,16.30
2022-07-29T13:12:11.986Z,16.30
2022-07-29T13:14:43.250Z,16.30
2022-07-29T13:17:14.624Z,15.60
2022-07-29T13:19:45.038Z,16.50
2022-07-29T13:22:15.812Z,15.60
2022-07-29T13:24:52.351Z,15.40
2022-07-29T13:27:22.794Z,15.80
2022-07-29T13:29:53.363Z,15.00
2022-07-29T13:32:27.704Z,15.20
2022-07-29T13:34:57.083Z,14.90
2022-07-29T13:37:25.437Z,15.20
2022-07-29T13:39:55.014Z,16.10
2022-07-29T13:42:23.999Z,16.30
2022-07-29T13:44:53.540Z,16.30
2022-07-29T13:47:23.075Z,16.30
2022-07-29T13:50:01.271Z,16.20
2022-07-29T13:52:29.580Z,16.40
2022-07-29T13:54:57.821Z,15.90
2022-07-29T13:57:26.475Z,16.40
2022-07-29T13:59:56.122Z,16.40
2022-07-29T14:02:25.813Z,16.30
2022-07-29T14:04:55.126Z,16.30
2022-07-29T14:07:24.200Z,16.30
2022-07-29T14:09:52.617Z,16.10
2022-07-29T14:12:20.739Z,16.30
2022-07-29T14:14:48.894Z,16.90
2022-07-29T14:17:18.866Z,16.40
2022-07-29T14:19:47.035Z,16.40
2022-07-29T14:22:15.184Z,16.60
2022-07-29T14:24:43.937Z,17.10
2022-07-29T14:27:12.547Z,17.10
2022-07-29T14:29:40.736Z,17.10
2022-07-29T14:32:09.881Z,17.10
2022-07-29T14:34:40.508Z,17.10
2022-07-29T14:37:09.388Z,17.10
2022-07-29T14:39:42.852Z,17.50
2022-07-29T14:42:13.011Z,17.50
2022-07-29T14:44:42.216Z,17.30
2022-07-29T14:47:11.150Z,17.40
2022-07-29T14:49:40.635Z,17.40
2022-07-29T14:52:08.654Z,17.20
2022-07-29T14:54:36.797Z,17.30
2022-07-29T14:57:05.075Z,17.40
2022-07-29T14:59:33.164Z,17.30
2022-07-29T15:02:02.018Z,17.30
2022-07-29T15:04:31.143Z,17.20
2022-07-29T15:07:00.973Z,17.20
2022-07-29T15:09:29.783Z,17.20
2022-07-29T15:11:58.532Z,17.20
2022-07-29T15:14:30.300Z,17.50
2022-07-29T15:16:58.722Z,17.50
2022-07-29T15:19:27.184Z,17.50
2022-07-29T15:21:59.281Z,18.20
2022-07-29T15:24:29.882Z,17.90
2022-07-29T15:26:58.564Z,17.70
2022-07-29T15:29:26.853Z,18.00
2022-07-29T15:31:55.239Z,18.00
2022-07-29T15:34:24.186Z,17.90
2022-07-29T15:36:53.696Z,17.80
2022-07-29T15:39:23.259Z,17.50
2022-07-29T15:41:53.221Z,17.70
2022-07-29T15:44:22.412Z,17.50
2022-07-29T15:47:07.135Z,17.60
2022-07-29T15:49:47.243Z,17.70
2022-07-29T15:52:25.959Z,17.30
2022-07-29T15:54:56.006Z,17.70
2022-07-29T15:57:26.521Z,17.70
2022-07-29T15:59:55.004Z,17.80
2022-07-29T16:02:23.474Z,18.00
2022-07-29T16:04:51.964Z,17.90
2022-07-29T16:07:20.453Z,17.80
2022-07-29T16:09:53.040Z,17.80
2022-07-29T16:12:21.924Z,18.10
2022-07-29T16:14:52.112Z,17.90
2022-07-29T16:17:21.235Z,18.20
2022-07-29T16:19:50.573Z,17.90
2022-07-29T16:22:19.204Z,18.00
2022-07-29T16:24:47.710Z,17.80
2022-07-29T16:27:16.428Z,17.80
2022-07-29T16:29:46.911Z,17.80
2022-07-29T16:32:22.340Z,17.90
2022-07-29T16:34:51.370Z,17.60
2022-07-29T16:37:20.158Z,17.90
2022-07-29T16:39:48.739Z,17.80
2022-07-29T16:42:43.971Z,17.60
2022-07-29T16:45:07.414Z,17.80
2022-07-29T16:47:37.440Z,17.60
2022-07-29T16:50:07.844Z,17.50
2022-07-29T16:52:37.544Z,17.40
2022-07-29T16:55:08.073Z,17.40
2022-07-29T16:57:36.856Z,17.20
2022-07-29T17:00:07.540Z,17.10
2022-07-29T17:02:38.706Z,17.20
2022-07-29T17:05:08.856Z,17.10
2022-07-29T17:07:37.509Z,17.00
2022-07-29T17:10:08.288Z,17.20
2022-07-29T17:12:37.728Z,17.30
2022-07-29T17:15:08.716Z,17.40
2022-07-29T17:17:55.112Z,17.60
2022-07-29T17:20:26.721Z,17.20
2022-07-29T17:22:55.906Z,17.20
2022-07-29T17:25:25.006Z,17.60
2022-07-29T17:28:00.509Z,17.30
2022-07-29T17:30:29.873Z,18.20
2022-07-29T17:32:59.929Z,17.50
2022-07-29T17:35:45.759Z,17.50
2022-07-29T17:38:14.211Z,17.40
2022-07-29T17:40:42.627Z,17.70
2022-07-29T17:43:11.072Z,17.50
2022-07-29T17:45:48.724Z,17.60
2022-07-29T17:48:21.000Z,17.60
2022-07-29T17:50:50.141Z,17.80
2022-07-29T17:53:19.273Z,18.10
2022-07-29T17:55:49.654Z,18.10
2022-07-29T17:58:18.219Z,18.00
2022-07-29T18:00:46.510Z,18.10
2022-07-29T18:03:15.088Z,18.20
2022-07-29T18:05:45.713Z,18.40
2022-07-29T18:08:14.401Z,18.70
2022-07-29T18:10:42.930Z,18.50
2022-07-29T18:13:12.650Z,19.00
2022-07-29T18:15:42.229Z,19.00
2022-07-29T18:18:10.939Z,19.40
2022-07-29T18:20:39.534Z,19.30
2022-07-29T18:23:09.538Z,19.60
2022-07-29T18:25:39.009Z,19.80
2022-07-29T18:28:08.176Z,19.90
2022-07-29T18:30:37.894Z,20.10
2022-07-29T18:33:23.938Z,20.20
2022-07-29T18:36:10.001Z,19.60
2022-07-29T18:38:41.864Z,19.60
2022-07-29T18:41:10.672Z,20.00
2022-07-29T18:43:39.422Z,19.80
2022-07-29T18:46:07.872Z,19.80
2022-07-29T18:48:36.843Z,19.90
2022-07-29T18:51:09.009Z,19.70
2022-07-29T18:53:38.533Z,19.80
2022-07-29T18:56:08.455Z,20.00
2022-07-29T18:58:38.255Z,19.60
2022-07-29T19:01:07.010Z,19.70
2022-07-29T19:03:36.396Z,19.70
2022-07-29T19:06:05.335Z,19.80
2022-07-29T19:08:36.028Z,20.00
2022-07-29T19:11:04.267Z,20.20
2022-07-29T19:13:34.337Z,19.70
2022-07-29T19:16:02.445Z,19.90
2022-07-29T19:18:30.540Z,19.70
2022-07-29T19:20:58.608Z,20.00
2022-07-29T19:23:26.677Z,19.70
2022-07-29T19:25:54.742Z,19.60
2022-07-29T19:28:22.937Z,19.90
2022-07-29T19:30:52.626Z,19.60
2022-07-29T19:33:21.123Z,19.50
2022-07-29T19:35:54.331Z,19.70
2022-07-29T19:38:23.229Z,19.70
2022-07-29T19:40:51.653Z,19.90
2022-07-29T19:43:51.058Z,20.40
2022-07-29T19:46:09.172Z,19.90
2022-07-29T19:48:37.808Z,19.80
2022-07-29T19:51:05.959Z,19.70
2022-07-29T19:53:34.043Z,19.30
2022-07-29T19:56:02.193Z,19.70
2022-07-29T19:58:31.515Z,19.90
2022-07-29T20:01:00.677Z,19.60
2022-07-29T20:03:30.265Z,19.90
2022-07-29T20:05:58.333Z,19.90
2022-07-29T20:08:26.420Z,20.00
2022-07-29T20:10:55.906Z,20.20
2022-07-29T20:13:23.962Z,20.00
2022-07-29T20:15:52.012Z,20.50
2022-07-29T20:18:20.072Z,20.40
2022-07-29T20:20:49.964Z,20.40
2022-07-29T20:23:19.270Z,20.40
2022-07-29T20:25:47.329Z,20.40
2022-07-29T20:28:15.515Z,20.30
2022-07-29T20:30:43.659Z,20.40
2022-07-29T20:33:11.793Z,20.50
2022-07-29T20:35:40.845Z,20.30
2022-07-29T20:38:12.923Z,20.30
2022-07-29T20:40:43.193Z,20.40
2022-07-29T20:43:11.254Z,20.40
2022-07-29T20:45:39.541Z,20.50
2022-07-29T20:48:08.334Z,20.20
2022-07-29T20:50:36.722Z,20.30
2022-07-29T20:53:04.904Z,20.30
2022-07-29T20:55:34.449Z,20.30
2022-07-29T20:58:02.782Z,20.80
2022-07-29T21:00:31.072Z,20.70
2022-07-29T21:02:59.387Z,20.90
2022-07-29T21:05:27.585Z,21.00
2022-07-29T21:07:58.232Z,21.20
2022-07-29T21:10:26.530Z,21.40
2022-07-29T21:12:55.935Z,21.10
2022-07-29T21:15:24.177Z,21.30
2022-07-29T21:18:00.178Z,21.30
2022-07-29T21:20:28.583Z,21.40
2022-07-29T21:22:56.797Z,21.70
2022-07-29T21:25:26.244Z,21.70
2022-07-29T21:28:13.352Z,21.50
2022-07-29T21:30:41.437Z,21.70
2022-07-29T21:33:09.539Z,21.70
2022-07-29T21:36:00.906Z,21.70
2022-07-29T21:38:25.764Z,21.70
2022-07-29T21:40:54.457Z,21.70
2022-07-29T21:43:26.461Z,21.90
2022-07-29T21:45:54.681Z,21.90
2022-07-29T21:48:24.683Z,21.80
2022-07-29T21:50:53.602Z,21.90
2022-07-29T21:53:23.023Z,21.70
2022-07-29T21:55:55.340Z,21.90
2022-07-29T21:58:25.205Z,21.70
2022-07-29T22:00:53.823Z,22.20
2022-07-29T22:03:22.031Z,22.10
2022-07-29T22:05:50.086Z,22.20
2022-07-29T22:08:18.180Z,22.10
2022-07-29T22:10:46.270Z,22.20
2022-07-29T22:13:14.319Z,22.30
2022-07-29T22:15:47.075Z,22.50
2022-07-29T22:18:21.114Z,23.20
2022-07-29T22:20:49.864Z,22.30
2022-07-29T22:23:18.046Z,22.40
2022-07-29T22:25:46.132Z,22.50
2022-07-29T22:28:14.149Z,22.30
2022-07-29T22:30:43.778Z,22.40
2022-07-29T22:33:17.482Z,22.50
2022-07-29T22:35:48.621Z,22.80
2022-07-29T22:38:17.483Z,22.60
2022-07-29T22:40:46.792Z,23.40
2022-07-29T22:43:16.980Z,22.80
2022-07-29T22:45:46.478Z,22.90
2022-07-29T22:48:14.581Z,23.00
2022-07-29T22:50:42.921Z,23.10
2022-07-29T22:53:10.974Z,23.10
2022-07-29T22:55:39.025Z,22.90
2022-07-29T22:58:07.119Z,23.20
2022-07-29T23:00:35.456Z,23.30
2022-07-29T23:03:05.110Z,23.10
2022-07-29T23:05:33.534Z,23.30
2022-07-29T23:08:01.651Z,23.50
2022-07-29T23:10:30.028Z,23.30
2022-07-29T23:12:58.047Z,23.50
2022-07-29T23:15:26.234Z,23.40
2022-07-29T23:17:54.285Z,23.70
2022-07-29T23:20:23.652Z,23.80
2022-07-29T23:22:51.716Z,23.80
2022-07-29T23:25:20.271Z,23.70
2022-07-29T23:27:48.391Z,23.70
2022-07-29T23:30:16.424Z,23.70
2022-07-29T23:32:44.460Z,23.70
2022-07-29T23:35:12.505Z,23.80
2022-07-29T23:37:41.947Z,24.00
2022-07-29T23:40:14.405Z,23.70
2022-07-29T23:42:43.657Z,23.70
2022-07-29T23:45:13.813Z,23.70
2022-07-29T23:47:42.700Z,23.80
2022-07-29T23:50:13.002Z,23.80
2022-07-29T23:52:42.921Z,24.00
2022-07-29T23:55:38.288Z,23.90
2022-07-29T23:58:00.184Z,24.20
